sensor_id;sensor_type;location;lat;lon;timestamp;pressure;altitude;pressure_sealevel;temperature;humidity
74893;BME280;63446;56.272;43.922;2023-09-30T00:00:38;101230.47;;;13.95;67.98
74893;BME280;63446;56.272;43.922;2023-09-30T00:03:03;101235.28;;;13.92;67.92
74893;BME280;63446;56.272;43.922;2023-09-30T00:05:29;101224.91;;;13.91;68.11
74893;BME280;63446;56.272;43.922;2023-09-30T00:07:55;101227.56;;;13.91;68.06
74893;BME280;63446;56.272;43.922;2023-09-30T00:10:21;101209.25;;;13.84;68.06
74893;BME280;63446;56.272;43.922;2023-09-30T00:12:47;101222.81;;;13.88;68.35
74893;BME280;63446;56.272;43.922;2023-09-30T00:15:13;101213.22;;;13.87;68.41
74893;BME280;63446;56.272;43.922;2023-09-30T00:17:39;101227.28;;;13.87;68.51
74893;BME280;63446;56.272;43.922;2023-09-30T00:20:05;101224.38;;;13.89;68.49
74893;BME280;63446;56.272;43.922;2023-09-30T00:22:31;101225.47;;;13.88;68.54
74893;BME280;63446;56.272;43.922;2023-09-30T00:24:57;101222.25;;;13.86;68.49
74893;BME280;63446;56.272;43.922;2023-09-30T00:27:23;101208.44;;;13.89;68.70
74893;BME280;63446;56.272;43.922;2023-09-30T00:29:49;101214.81;;;13.88;68.58
74893;BME280;63446;56.272;43.922;2023-09-30T00:32:15;101219.84;;;13.89;68.83
74893;BME280;63446;56.272;43.922;2023-09-30T00:34:41;101210.84;;;13.85;68.72
74893;BME280;63446;56.272;43.922;2023-09-30T00:37:08;101219.03;;;13.94;68.69
74893;BME280;63446;56.272;43.922;2023-09-30T00:39:34;101212.91;;;13.99;68.53
74893;BME280;63446;56.272;43.922;2023-09-30T00:42:01;101212.91;;;13.99;68.45
74893;BME280;63446;56.272;43.922;2023-09-30T00:44:30;101214.22;;;14.06;68.34
74893;BME280;63446;56.272;43.922;2023-09-30T00:46:56;101212.38;;;14.07;68.41
74893;BME280;63446;56.272;43.922;2023-09-30T00:49:23;101213.16;;;14.12;68.24
74893;BME280;63446;56.272;43.922;2023-09-30T00:51:50;101217.41;;;14.13;68.11
74893;BME280;63446;56.272;43.922;2023-09-30T00:54:18;101218.72;;;14.16;68.13
74893;BME280;63446;56.272;43.922;2023-09-30T00:56:46;101213.38;;;14.21;68.17
74893;BME280;63446;56.272;43.922;2023-09-30T00:59:13;101214.44;;;14.25;67.88
74893;BME280;63446;56.272;43.922;2023-09-30T01:01:44;101222.13;;;14.32;68.00
74893;BME280;63446;56.272;43.922;2023-09-30T01:04:11;101204.03;;;14.34;67.96
74893;BME280;63446;56.272;43.922;2023-09-30T01:06:38;101207.22;;;14.36;67.76
74893;BME280;63446;56.272;43.922;2023-09-30T01:09:04;101213.81;;;14.44;67.60
74893;BME280;63446;56.272;43.922;2023-09-30T01:11:31;101204.50;;;14.41;67.44
74893;BME280;63446;56.272;43.922;2023-09-30T01:13:57;101212.19;;;14.53;67.42
74893;BME280;63446;56.272;43.922;2023-09-30T01:16:23;101201.81;;;14.56;67.39
74893;BME280;63446;56.272;43.922;2023-09-30T01:18:51;101196.75;;;14.60;67.02
74893;BME280;63446;56.272;43.922;2023-09-30T01:21:19;101194.63;;;14.62;67.00
74893;BME280;63446;56.272;43.922;2023-09-30T01:23:45;101198.59;;;14.64;66.83
74893;BME280;63446;56.272;43.922;2023-09-30T01:26:13;101197.22;;;14.67;66.81
74893;BME280;63446;56.272;43.922;2023-09-30T01:28:40;101194.84;;;14.65;66.82
74893;BME280;63446;56.272;43.922;2023-09-30T01:31:06;101193.50;;;14.68;67.04
74893;BME280;63446;56.272;43.922;2023-09-30T01:33:34;101193.50;;;14.68;66.82
74893;BME280;63446;56.272;43.922;2023-09-30T01:36:03;101194.03;;;14.70;66.68
74893;BME280;63446;56.272;43.922;2023-09-30T01:38:29;101190.56;;;14.70;66.51
74893;BME280;63446;56.272;43.922;2023-09-30T01:40:54;101199.06;;;14.72;66.71
74893;BME280;63446;56.272;43.922;2023-09-30T01:43:20;101196.41;;;14.72;66.62
74893;BME280;63446;56.272;43.922;2023-09-30T01:45:46;101190.28;;;14.71;66.47
74893;BME280;63446;56.272;43.922;2023-09-30T01:48:12;101196.41;;;14.72;66.47
74893;BME280;63446;56.272;43.922;2023-09-30T01:50:39;101189.47;;;14.76;66.63
74893;BME280;63446;56.272;43.922;2023-09-30T01:53:06;101178.28;;;14.79;66.59
74893;BME280;63446;56.272;43.922;2023-09-30T01:55:33;101183.56;;;14.84;66.33
74893;BME280;63446;56.272;43.922;2023-09-30T01:58:00;101175.53;;;14.89;66.32
74893;BME280;63446;56.272;43.922;2023-09-30T02:00:26;101173.91;;;14.93;66.18
74893;BME280;63446;56.272;43.922;2023-09-30T02:02:57;101162.44;;;14.98;66.02
74893;BME280;63446;56.272;43.922;2023-09-30T02:05:25;101153.38;;;14.99;65.54
74893;BME280;63446;56.272;43.922;2023-09-30T02:07:51;101159.75;;;15.03;65.52
74893;BME280;63446;56.272;43.922;2023-09-30T02:10:17;101168.97;;;15.10;65.22
74893;BME280;63446;56.272;43.922;2023-09-30T02:12:46;101174.00;;;15.17;65.15
74893;BME280;63446;56.272;43.922;2023-09-30T02:15:13;101166.28;;;15.16;65.04
74893;BME280;63446;56.272;43.922;2023-09-30T02:17:39;101174.47;;;15.24;65.04
74893;BME280;63446;56.272;43.922;2023-09-30T02:20:06;101169.66;;;15.26;64.99
74893;BME280;63446;56.272;43.922;2023-09-30T02:22:58;101169.13;;;15.24;65.01
74893;BME280;63446;56.272;43.922;2023-09-30T02:25:25;101176.56;;;15.27;64.99
74893;BME280;63446;56.272;43.922;2023-09-30T02:27:51;101159.00;;;15.26;64.94
74893;BME280;63446;56.272;43.922;2023-09-30T02:30:18;101156.38;;;15.21;65.03
74893;BME280;63446;56.272;43.922;2023-09-30T02:32:43;101163.03;;;15.24;65.01
74893;BME280;63446;56.272;43.922;2023-09-30T02:35:12;101161.69;;;15.21;64.96
74893;BME280;63446;56.272;43.922;2023-09-30T02:37:41;101160.13;;;15.20;64.74
74893;BME280;63446;56.272;43.922;2023-09-30T02:40:07;101151.41;;;15.14;64.86
74893;BME280;63446;56.272;43.922;2023-09-30T02:42:40;101160.69;;;15.17;64.68
74893;BME280;63446;56.272;43.922;2023-09-30T02:45:07;101159.38;;;15.14;64.81
74893;BME280;63446;56.272;43.922;2023-09-30T02:47:34;101156.19;;;15.12;64.97
74893;BME280;63446;56.272;43.922;2023-09-30T02:50:00;101146.94;;;15.05;64.99
74893;BME280;63446;56.272;43.922;2023-09-30T02:52:30;101146.69;;;15.01;64.94
74893;BME280;63446;56.272;43.922;2023-09-30T02:54:58;101138.16;;;15.04;64.98
74893;BME280;63446;56.272;43.922;2023-09-30T02:57:24;101140.81;;;15.04;64.71
74893;BME280;63446;56.272;43.922;2023-09-30T02:59:50;101136.59;;;15.03;64.70
74893;BME280;63446;56.272;43.922;2023-09-30T03:02:20;101123.59;;;14.97;64.79
74893;BME280;63446;56.272;43.922;2023-09-30T03:04:50;101137.38;;;15.04;64.85
74893;BME280;63446;56.272;43.922;2023-09-30T03:07:18;101136.28;;;15.05;64.76
74893;BME280;63446;56.272;43.922;2023-09-30T03:09:45;101124.56;;;15.06;64.56
74893;BME280;63446;56.272;43.922;2023-09-30T03:12:13;101122.69;;;15.06;64.39
74893;BME280;63446;56.272;43.922;2023-09-30T03:14:40;101128.84;;;15.07;64.39
74893;BME280;63446;56.272;43.922;2023-09-30T03:17:06;101124.81;;;15.09;64.21
74893;BME280;63446;56.272;43.922;2023-09-30T03:19:38;101126.63;;;15.14;64.24
74893;BME280;63446;56.272;43.922;2023-09-30T03:22:05;101127.66;;;15.18;64.29
74893;BME280;63446;56.272;43.922;2023-09-30T03:24:31;101134.81;;;15.23;64.27
74893;BME280;63446;56.272;43.922;2023-09-30T03:26:57;101136.34;;;15.29;63.93
74893;BME280;63446;56.272;43.922;2023-09-30T03:29:24;101134.94;;;15.36;64.15
74893;BME280;63446;56.272;43.922;2023-09-30T03:31:50;101134.59;;;15.43;64.03
74893;BME280;63446;56.272;43.922;2023-09-30T03:34:16;101140.56;;;15.59;63.70
74893;BME280;63446;56.272;43.922;2023-09-30T03:36:42;101133.53;;;15.73;63.42
74893;BME280;63446;56.272;43.922;2023-09-30T03:39:09;101137.81;;;15.93;62.82
74893;BME280;63446;56.272;43.922;2023-09-30T03:41:40;101131.88;;;16.20;62.16
74893;BME280;63446;56.272;43.922;2023-09-30T03:44:06;101138.53;;;16.42;61.63
74893;BME280;63446;56.272;43.922;2023-09-30T03:46:32;101137.47;;;16.56;61.02
74893;BME280;63446;56.272;43.922;2023-09-30T03:48:58;101128.84;;;16.65;60.71
74893;BME280;63446;56.272;43.922;2023-09-30T03:51:25;101134.41;;;16.68;60.61
74893;BME280;63446;56.272;43.922;2023-09-30T03:53:51;101129.56;;;16.70;60.47
74893;BME280;63446;56.272;43.922;2023-09-30T03:56:18;101129.00;;;16.73;60.17
74893;BME280;63446;56.272;43.922;2023-09-30T03:58:44;101128.75;;;16.89;59.65
74893;BME280;63446;56.272;43.922;2023-09-30T04:01:11;101136.06;;;17.16;59.38
74893;BME280;63446;56.272;43.922;2023-09-30T04:03:37;101123.44;;;17.49;58.42
74893;BME280;63446;56.272;43.922;2023-09-30T04:06:07;101131.50;;;17.76;57.76
74893;BME280;63446;56.272;43.922;2023-09-30T04:08:33;101132.56;;;17.89;57.34
74893;BME280;63446;56.272;43.922;2023-09-30T04:11:00;101132.06;;;17.87;57.08
74893;BME280;63446;56.272;43.922;2023-09-30T04:13:27;101117.91;;;17.73;57.21
74893;BME280;63446;56.272;43.922;2023-09-30T04:15:53;101119.38;;;17.65;57.05
74893;BME280;63446;56.272;43.922;2023-09-30T04:18:19;101121.16;;;17.56;57.19
74893;BME280;63446;56.272;43.922;2023-09-30T04:20:48;101115.22;;;17.45;57.38
74893;BME280;63446;56.272;43.922;2023-09-30T04:23:14;101123.53;;;17.44;57.34
74893;BME280;63446;56.272;43.922;2023-09-30T04:25:41;101115.59;;;17.39;57.48
74893;BME280;63446;56.272;43.922;2023-09-30T04:28:10;101125.41;;;17.43;57.45
74893;BME280;63446;56.272;43.922;2023-09-30T04:30:36;101118.69;;;17.46;57.39
74893;BME280;63446;56.272;43.922;2023-09-30T04:33:02;101110.94;;;17.44;57.25
74893;BME280;63446;56.272;43.922;2023-09-30T04:35:30;101117.22;;;17.53;57.06
74893;BME280;63446;56.272;43.922;2023-09-30T04:37:56;101117.09;;;17.58;57.06
74893;BME280;63446;56.272;43.922;2023-09-30T04:40:27;101106.59;;;17.62;56.75
74893;BME280;63446;56.272;43.922;2023-09-30T04:42:53;101102.06;;;17.63;56.78
74893;BME280;63446;56.272;43.922;2023-09-30T04:45:25;101113.63;;;17.72;56.50
74893;BME280;63446;56.272;43.922;2023-09-30T04:47:53;101100.47;;;17.75;56.25
74893;BME280;63446;56.272;43.922;2023-09-30T04:50:19;101109.19;;;17.81;56.37
74893;BME280;63446;56.272;43.922;2023-09-30T04:52:48;101109.88;;;17.87;56.10
74893;BME280;63446;56.272;43.922;2023-09-30T04:55:14;101101.84;;;17.87;56.14
74893;BME280;63446;56.272;43.922;2023-09-30T04:57:46;101102.56;;;17.92;56.12
74893;BME280;63446;56.272;43.922;2023-09-30T05:00:15;101109.00;;;17.91;55.98
74893;BME280;63446;56.272;43.922;2023-09-30T05:02:45;101105.03;;;17.89;55.85
74893;BME280;63446;56.272;43.922;2023-09-30T05:05:14;101109.69;;;17.83;55.85
74893;BME280;63446;56.272;43.922;2023-09-30T05:07:40;101110.59;;;17.78;55.82
74893;BME280;63446;56.272;43.922;2023-09-30T05:10:11;101113.63;;;17.72;55.87
74893;BME280;63446;56.272;43.922;2023-09-30T05:12:42;101115.03;;;17.69;55.84
74893;BME280;63446;56.272;43.922;2023-09-30T05:15:12;101114.25;;;17.69;55.73
74893;BME280;63446;56.272;43.922;2023-09-30T05:17:39;101113.94;;;17.70;55.63
74893;BME280;63446;56.272;43.922;2023-09-30T05:20:05;101108.78;;;17.74;55.66
74893;BME280;63446;56.272;43.922;2023-09-30T05:22:33;101111.75;;;17.86;55.24
74893;BME280;63446;56.272;43.922;2023-09-30T05:25:00;101112.63;;;18.09;55.05
74893;BME280;63446;56.272;43.922;2023-09-30T05:27:27;101119.78;;;18.36;54.38
74893;BME280;63446;56.272;43.922;2023-09-30T05:29:53;101102.66;;;18.60;54.02
74893;BME280;63446;56.272;43.922;2023-09-30T05:32:21;101103.00;;;18.81;53.56
74893;BME280;63446;56.272;43.922;2023-09-30T05:34:48;101107.19;;;18.95;53.14
74893;BME280;63446;56.272;43.922;2023-09-30T05:37:14;101105.19;;;19.10;53.09
74893;BME280;63446;56.272;43.922;2023-09-30T05:39:40;101102.84;;;19.17;52.71
74893;BME280;63446;56.272;43.922;2023-09-30T05:42:06;101104.94;;;19.20;52.63
74893;BME280;63446;56.272;43.922;2023-09-30T05:44:32;101106.50;;;19.21;52.67
74893;BME280;63446;56.272;43.922;2023-09-30T05:46:58;101095.94;;;19.16;52.47
74893;BME280;63446;56.272;43.922;2023-09-30T05:49:25;101092.63;;;19.19;52.34
74893;BME280;63446;56.272;43.922;2023-09-30T05:51:51;101097.50;;;19.17;52.30
74893;BME280;63446;56.272;43.922;2023-09-30T05:54:17;101095.59;;;19.17;52.39
74893;BME280;63446;56.272;43.922;2023-09-30T05:56:44;101088.22;;;19.14;52.61
74893;BME280;63446;56.272;43.922;2023-09-30T05:59:10;101100.53;;;19.24;52.41
74893;BME280;63446;56.272;43.922;2023-09-30T06:01:36;101082.88;;;19.23;52.57
74893;BME280;63446;56.272;43.922;2023-09-30T06:04:02;101084.63;;;19.27;52.45
74893;BME280;63446;56.272;43.922;2023-09-30T06:06:28;101080.22;;;19.32;52.46
74893;BME280;63446;56.272;43.922;2023-09-30T06:08:58;101082.31;;;19.43;52.39
74893;BME280;63446;56.272;43.922;2023-09-30T06:11:28;101083.28;;;19.56;52.09
74893;BME280;63446;56.272;43.922;2023-09-30T06:13:55;101083.81;;;19.67;51.90
74893;BME280;63446;56.272;43.922;2023-09-30T06:16:21;101081.03;;;19.81;51.60
74893;BME280;63446;56.272;43.922;2023-09-30T06:18:49;101070.47;;;19.93;51.40
74893;BME280;63446;56.272;43.922;2023-09-30T06:21:15;101067.16;;;20.05;51.20
74893;BME280;63446;56.272;43.922;2023-09-30T06:23:43;101070.50;;;20.19;50.95
74893;BME280;63446;56.272;43.922;2023-09-30T06:26:09;101069.53;;;20.32;50.73
74893;BME280;63446;56.272;43.922;2023-09-30T06:28:35;101076.63;;;20.45;50.53
74893;BME280;63446;56.272;43.922;2023-09-30T06:31:08;101067.63;;;20.59;50.40
74893;BME280;63446;56.272;43.922;2023-09-30T06:33:35;101068.84;;;20.79;50.08
74893;BME280;63446;56.272;43.922;2023-09-30T06:36:02;101061.34;;;21.02;49.72
74893;BME280;63446;56.272;43.922;2023-09-30T06:38:28;101065.56;;;21.20;49.32
74893;BME280;63446;56.272;43.922;2023-09-30T06:40:54;101060.44;;;21.36;49.12
74893;BME280;63446;56.272;43.922;2023-09-30T06:43:22;101060.22;;;21.50;48.95
74893;BME280;63446;56.272;43.922;2023-09-30T06:45:48;101065.88;;;21.57;48.87
74893;BME280;63446;56.272;43.922;2023-09-30T06:48:14;101064.97;;;21.53;48.66
74893;BME280;63446;56.272;43.922;2023-09-30T06:50:45;101060.03;;;21.55;48.61
74893;BME280;63446;56.272;43.922;2023-09-30T06:53:17;101045.25;;;21.40;48.80
74893;BME280;63446;56.272;43.922;2023-09-30T06:55:49;101050.97;;;21.38;48.96
74893;BME280;63446;56.272;43.922;2023-09-30T06:58:16;101057.47;;;21.37;49.15
74893;BME280;63446;56.272;43.922;2023-09-30T07:00:48;101059.22;;;21.33;49.27
74893;BME280;63446;56.272;43.922;2023-09-30T07:03:15;101053.03;;;21.33;49.24
74893;BME280;63446;56.272;43.922;2023-09-30T07:05:41;101050.63;;;21.40;49.22
74893;BME280;63446;56.272;43.922;2023-09-30T07:08:09;101053.28;;;21.49;49.22
74893;BME280;63446;56.272;43.922;2023-09-30T07:10:35;101047.56;;;21.50;48.87
74893;BME280;63446;56.272;43.922;2023-09-30T07:13:03;101050.19;;;21.59;48.88
74893;BME280;63446;56.272;43.922;2023-09-30T07:15:29;101056.38;;;21.59;48.78
74893;BME280;63446;56.272;43.922;2023-09-30T07:17:55;101050.69;;;21.61;48.70
74893;BME280;63446;56.272;43.922;2023-09-30T07:20:22;101054.72;;;21.67;48.79
74893;BME280;63446;56.272;43.922;2023-09-30T07:22:48;101050.09;;;21.76;48.57
74893;BME280;63446;56.272;43.922;2023-09-30T07:25:15;101048.25;;;21.89;48.63
74893;BME280;63446;56.272;43.922;2023-09-30T07:27:45;101048.13;;;22.06;48.34
74893;BME280;63446;56.272;43.922;2023-09-30T07:30:12;101049.00;;;22.19;48.03
74893;BME280;63446;56.272;43.922;2023-09-30T07:32:41;101044.78;;;22.30;47.97
74893;BME280;63446;56.272;43.922;2023-09-30T07:35:08;101042.34;;;22.37;47.73
74893;BME280;63446;56.272;43.922;2023-09-30T07:37:34;101041.78;;;22.44;47.65
74893;BME280;63446;56.272;43.922;2023-09-30T07:40:00;101047.41;;;22.51;47.51
74893;BME280;63446;56.272;43.922;2023-09-30T07:42:29;101048.31;;;22.55;47.42
74893;BME280;63446;56.272;43.922;2023-09-30T07:44:55;101041.94;;;22.60;47.53
74893;BME280;63446;56.272;43.922;2023-09-30T07:47:22;101038.59;;;22.63;47.57
74893;BME280;63446;56.272;43.922;2023-09-30T07:49:48;101030.84;;;22.61;47.68
74893;BME280;63446;56.272;43.922;2023-09-30T07:52:14;101030.97;;;22.65;47.43
74893;BME280;63446;56.272;43.922;2023-09-30T07:54:40;101029.50;;;22.67;47.41
74893;BME280;63446;56.272;43.922;2023-09-30T07:57:07;101026.59;;;22.73;47.28
74893;BME280;63446;56.272;43.922;2023-09-30T07:59:33;101024.03;;;22.76;47.17
74893;BME280;63446;56.272;43.922;2023-09-30T08:02:01;101022.91;;;22.77;47.31
74893;BME280;63446;56.272;43.922;2023-09-30T08:04:30;101026.84;;;22.80;47.26
74893;BME280;63446;56.272;43.922;2023-09-30T08:06:57;101025.38;;;22.82;47.13
74893;BME280;63446;56.272;43.922;2023-09-30T08:09:23;101020.88;;;22.86;47.00
74893;BME280;63446;56.272;43.922;2023-09-30T08:11:52;101013.25;;;22.88;47.03
74893;BME280;63446;56.272;43.922;2023-09-30T08:14:19;101022.72;;;22.95;47.02
74893;BME280;63446;56.272;43.922;2023-09-30T08:16:45;101024.06;;;23.01;47.17
74893;BME280;63446;56.272;43.922;2023-09-30T08:19:11;101015.44;;;23.07;46.90
74893;BME280;63446;56.272;43.922;2023-09-30T08:21:37;101016.44;;;23.15;46.92
74893;BME280;63446;56.272;43.922;2023-09-30T08:24:04;101009.78;;;23.25;46.83
74893;BME280;63446;56.272;43.922;2023-09-30T08:26:29;100997.09;;;23.25;46.73
74893;BME280;63446;56.272;43.922;2023-09-30T08:28:56;101003.50;;;23.33;46.77
74893;BME280;63446;56.272;43.922;2023-09-30T08:31:22;101000.25;;;23.27;46.74
74893;BME280;63446;56.272;43.922;2023-09-30T08:33:49;101007.09;;;23.25;46.86
74893;BME280;63446;56.272;43.922;2023-09-30T08:36:15;101005.78;;;23.19;46.90
74893;BME280;63446;56.272;43.922;2023-09-30T08:38:41;100997.13;;;23.13;47.06
74893;BME280;63446;56.272;43.922;2023-09-30T08:41:08;100995.44;;;23.08;47.23
74893;BME280;63446;56.272;43.922;2023-09-30T08:43:40;100982.06;;;23.00;47.37
74893;BME280;63446;56.272;43.922;2023-09-30T08:46:07;100994.06;;;23.02;47.33
74893;BME280;63446;56.272;43.922;2023-09-30T08:48:34;100985.44;;;22.97;47.44
74893;BME280;63446;56.272;43.922;2023-09-30T08:51:01;100984.31;;;22.98;47.57
74893;BME280;63446;56.272;43.922;2023-09-30T08:53:30;100977.34;;;22.97;47.66
74893;BME280;63446;56.272;43.922;2023-09-30T08:55:58;100978.91;;;22.98;47.57
74893;BME280;63446;56.272;43.922;2023-09-30T08:58:28;100976.81;;;23.03;47.67
74893;BME280;63446;56.272;43.922;2023-09-30T09:00:55;100968.47;;;23.08;47.48
74893;BME280;63446;56.272;43.922;2023-09-30T09:03:22;100966.34;;;23.14;47.70
74893;BME280;63446;56.272;43.922;2023-09-30T09:05:57;100971.94;;;23.21;47.69
74893;BME280;63446;56.272;43.922;2023-09-30T09:08:26;100962.16;;;23.29;47.23
74893;BME280;63446;56.272;43.922;2023-09-30T09:10:57;100971.25;;;23.36;47.07
74893;BME280;63446;56.272;43.922;2023-09-30T09:13:25;100970.25;;;23.41;46.96
74893;BME280;63446;56.272;43.922;2023-09-30T09:16:10;100968.75;;;23.44;46.50
74893;BME280;63446;56.272;43.922;2023-09-30T09:18:36;100964.59;;;23.46;46.32
74893;BME280;63446;56.272;43.922;2023-09-30T09:21:12;100966.28;;;23.51;46.20
74893;BME280;63446;56.272;43.922;2023-09-30T09:23:48;100964.03;;;23.53;46.33
74893;BME280;63446;56.272;43.922;2023-09-30T09:26:28;100960.56;;;23.52;46.65
74893;BME280;63446;56.272;43.922;2023-09-30T09:29:04;100955.59;;;23.54;46.63
74893;BME280;63446;56.272;43.922;2023-09-30T09:31:36;100957.16;;;23.55;46.67
74893;BME280;63446;56.272;43.922;2023-09-30T09:34:04;100949.50;;;23.57;46.70
74893;BME280;63446;56.272;43.922;2023-09-30T09:36:41;100951.63;;;23.64;46.30
74893;BME280;63446;56.272;43.922;2023-09-30T09:39:07;100945.56;;;23.67;46.08
74893;BME280;63446;56.272;43.922;2023-09-30T09:41:49;100948.56;;;23.78;46.21
74893;BME280;63446;56.272;43.922;2023-09-30T09:44:17;100945.97;;;23.81;46.28
74893;BME280;63446;56.272;43.922;2023-09-30T09:46:47;100944.91;;;23.86;46.44
74893;BME280;63446;56.272;43.922;2023-09-30T09:49:15;100943.81;;;23.87;46.53
74893;BME280;63446;56.272;43.922;2023-09-30T09:51:43;100946.94;;;23.89;46.05
74893;BME280;63446;56.272;43.922;2023-09-30T09:54:11;100934.22;;;23.90;45.89
74893;BME280;63446;56.272;43.922;2023-09-30T09:56:38;100941.75;;;23.96;45.61
74893;BME280;63446;56.272;43.922;2023-09-30T09:59:05;100938.00;;;24.01;45.75
74893;BME280;63446;56.272;43.922;2023-09-30T10:01:34;100930.09;;;24.08;45.49
74893;BME280;63446;56.272;43.922;2023-09-30T10:04:01;100924.88;;;24.15;45.44
74893;BME280;63446;56.272;43.922;2023-09-30T10:06:28;100924.63;;;24.20;45.29
74893;BME280;63446;56.272;43.922;2023-09-30T10:08:55;100918.44;;;24.20;45.21
74893;BME280;63446;56.272;43.922;2023-09-30T10:11:23;100919.41;;;24.27;44.62
74893;BME280;63446;56.272;43.922;2023-09-30T10:13:55;100917.47;;;24.28;44.23
74893;BME280;63446;56.272;43.922;2023-09-30T10:19:19;100913.91;;;24.24;44.11
74893;BME280;63446;56.272;43.922;2023-09-30T10:24:42;100900.41;;;24.24;44.02
74893;BME280;63446;56.272;43.922;2023-09-30T10:35:21;100896.66;;;24.28;43.68
74893;BME280;63446;56.272;43.922;2023-09-30T10:40:52;100895.78;;;24.24;43.18
74893;BME280;63446;56.272;43.922;2023-09-30T10:43:34;100893.44;;;24.23;43.37
74893;BME280;63446;56.272;43.922;2023-09-30T10:48:53;100890.06;;;24.26;43.43
74893;BME280;63446;56.272;43.922;2023-09-30T10:51:20;100895.09;;;24.27;43.57
74893;BME280;63446;56.272;43.922;2023-09-30T10:53:52;100884.19;;;24.24;43.23
74893;BME280;63446;56.272;43.922;2023-09-30T10:56:19;100890.38;;;24.24;43.08
74893;BME280;63446;56.272;43.922;2023-09-30T10:58:52;100885.66;;;24.21;43.09
74893;BME280;63446;56.272;43.922;2023-09-30T11:01:23;100881.31;;;24.17;43.25
74893;BME280;63446;56.272;43.922;2023-09-30T11:03:50;100882.38;;;24.12;43.52
74893;BME280;63446;56.272;43.922;2023-09-30T11:06:24;100877.13;;;24.03;43.44
74893;BME280;63446;56.272;43.922;2023-09-30T11:08:55;100880.44;;;23.97;43.42
74893;BME280;63446;56.272;43.922;2023-09-30T11:11:41;100880.94;;;23.86;43.64
74893;BME280;63446;56.272;43.922;2023-09-30T11:16:44;100879.97;;;23.79;43.87
74893;BME280;63446;56.272;43.922;2023-09-30T11:19:11;100876.84;;;23.77;44.13
74893;BME280;63446;56.272;43.922;2023-09-30T11:21:39;100872.47;;;23.72;44.06
74893;BME280;63446;56.272;43.922;2023-09-30T11:24:07;100870.66;;;23.76;44.07
74893;BME280;63446;56.272;43.922;2023-09-30T11:26:33;100867.97;;;23.76;43.79
74893;BME280;63446;56.272;43.922;2023-09-30T11:29:10;100864.91;;;23.78;43.73
74893;BME280;63446;56.272;43.922;2023-09-30T11:31:38;100866.91;;;23.81;43.74
74893;BME280;63446;56.272;43.922;2023-09-30T11:34:04;100860.47;;;23.85;43.64
74893;BME280;63446;56.272;43.922;2023-09-30T11:36:37;100856.72;;;23.90;43.95
74893;BME280;63446;56.272;43.922;2023-09-30T11:39:04;100856.13;;;23.97;43.76
74893;BME280;63446;56.272;43.922;2023-09-30T11:41:39;100858.25;;;24.03;44.00
74893;BME280;63446;56.272;43.922;2023-09-30T11:44:09;100855.28;;;24.08;43.82
74893;BME280;63446;56.272;43.922;2023-09-30T11:46:48;100853.81;;;24.11;43.78
74893;BME280;63446;56.272;43.922;2023-09-30T11:49:25;100841.09;;;24.11;43.65
74893;BME280;63446;56.272;43.922;2023-09-30T11:51:51;100852.25;;;24.10;43.73
74893;BME280;63446;56.272;43.922;2023-09-30T11:54:18;100844.06;;;24.06;43.84
74893;BME280;63446;56.272;43.922;2023-09-30T11:56:44;100849.28;;;23.99;43.90
74893;BME280;63446;56.272;43.922;2023-09-30T11:59:10;100842.91;;;23.92;43.99
74893;BME280;63446;56.272;43.922;2023-09-30T12:01:37;100843.41;;;23.81;44.07
74893;BME280;63446;56.272;43.922;2023-09-30T12:04:03;100843.91;;;23.71;44.08
74893;BME280;63446;56.272;43.922;2023-09-30T12:06:29;100840.09;;;23.60;44.27
74893;BME280;63446;56.272;43.922;2023-09-30T12:08:55;100844.88;;;23.51;44.42
74893;BME280;63446;56.272;43.922;2023-09-30T12:11:21;100839.97;;;23.40;44.63
74893;BME280;63446;56.272;43.922;2023-09-30T12:13:50;100835.09;;;23.30;44.67
74893;BME280;63446;56.272;43.922;2023-09-30T12:16:17;100841.41;;;23.22;45.05
74893;BME280;63446;56.272;43.922;2023-09-30T12:18:43;100837.38;;;23.16;45.20
74893;BME280;63446;56.272;43.922;2023-09-30T12:21:10;100835.25;;;23.09;45.40
74893;BME280;63446;56.272;43.922;2023-09-30T12:23:37;100830.09;;;23.04;45.46
74893;BME280;63446;56.272;43.922;2023-09-30T12:26:03;100830.00;;;23.01;45.41
74893;BME280;63446;56.272;43.922;2023-09-30T12:28:32;100823.06;;;23.00;45.28
74893;BME280;63446;56.272;43.922;2023-09-30T12:31:01;100819.91;;;22.98;45.55
74893;BME280;63446;56.272;43.922;2023-09-30T12:33:30;100813.50;;;22.90;45.71
74893;BME280;63446;56.272;43.922;2023-09-30T12:35:57;100806.31;;;22.94;45.71
74893;BME280;63446;56.272;43.922;2023-09-30T12:38:25;100810.00;;;22.89;45.62
74893;BME280;63446;56.272;43.922;2023-09-30T12:40:54;100808.44;;;22.88;45.78
74893;BME280;63446;56.272;43.922;2023-09-30T12:43:21;100799.59;;;22.88;45.98
74893;BME280;63446;56.272;43.922;2023-09-30T12:45:47;100805.31;;;22.86;46.16
74893;BME280;63446;56.272;43.922;2023-09-30T12:48:14;100803.75;;;22.85;46.15
74893;BME280;63446;56.272;43.922;2023-09-30T12:50:41;100802.59;;;22.86;46.21
74893;BME280;63446;56.272;43.922;2023-09-30T12:53:07;100784.34;;;22.80;46.18
74893;BME280;63446;56.272;43.922;2023-09-30T12:55:33;100790.94;;;22.82;46.09
74893;BME280;63446;56.272;43.922;2023-09-30T12:57:59;100786.69;;;22.81;46.10
74893;BME280;63446;56.272;43.922;2023-09-30T13:00:26;100792.44;;;22.80;46.12
74893;BME280;63446;56.272;43.922;2023-09-30T13:02:53;100792.75;;;22.78;45.98
74893;BME280;63446;56.272;43.922;2023-09-30T13:05:19;100795.00;;;22.76;46.06